Time;durP1;ratioP1;P1;durP2;ratioP2;P2;SDS_P1;SDS_P2;PMS_P1;PMS_P2;Temp;Humidity;BMP_temperature;BMP_pressure;BME280_temperature;BME280_humidity;BME280_pressure;Samples;Min_cycle;Max_cycle;Signal;HPM_P1;HPM_P2
2023/01/16 06:41:11;;;;;;;;;1.00;0.00;;;;;17.47;52.80;97776.56;5049429;27;45848;-86
2023/01/16 06:43:36;;;;;;;;;0.00;0.00;;;;;17.81;53.28;97748.00;5041763;27;45486;-82
2023/01/16 06:46:02;;;;;;;;;0.00;0.00;;;;;18.33;53.92;97758.22;5041474;27;45719;-85
2023/01/16 06:48:27;;;;;;;;;0.33;0.33;;;;;18.92;53.68;97763.72;5061841;27;45476;-80
2023/01/16 06:50:53;;;;;;;;;1.00;1.00;;;;;19.53;53.57;97749.28;5048066;27;46059;-78
2023/01/16 06:53:18;;;;;;;;;0.00;0.00;;;;;20.11;53.41;97747.50;5030260;28;45772;-79
2023/01/16 06:55:44;;;;;;;;;0.00;0.00;;;;;20.62;52.85;97731.31;5036273;27;45560;-80
2023/01/16 06:58:09;;;;;;;;;1.00;0.33;;;;;21.08;52.75;97737.28;5047547;28;45377;-79
2023/01/16 07:00:36;;;;;;;;;0.00;0.00;;;;;21.45;52.48;97718.38;5042992;28;46989;-81
2023/01/16 07:03:02;;;;;;;;;2.00;0.00;;;;;21.81;51.90;97718.53;5026094;28;45547;-81
2023/01/16 07:05:29;;;;;;;;;3.00;1.00;;;;;22.14;51.97;97720.97;5030526;27;45554;-86
2023/01/16 07:07:55;;;;;;;;;1.00;0.00;;;;;22.38;51.45;97708.28;5026335;27;45509;-81
2023/01/16 07:10:21;;;;;;;;;2.00;0.00;;;;;22.59;51.02;97709.63;5043232;28;46675;-79
2023/01/16 07:12:47;;;;;;;;;0.00;0.00;;;;;22.77;50.81;97697.03;5035454;27;45741;-75
2023/01/16 07:23:33;;;;;;;;;0.00;0.00;;;;;23.36;49.85;97647.38;5047340;28;45393;-74
2023/01/16 07:26:02;;;;;;;;;1.00;0.67;;;;;23.50;49.43;97649.78;5029892;27;45763;-74
2023/01/16 07:28:28;;;;;;;;;1.00;0.00;;;;;23.61;49.61;97646.19;5040836;27;45494;-74
2023/01/16 07:30:56;;;;;;;;;1.00;1.00;;;;;23.69;49.15;97653.91;5036916;28;46637;-74
2023/01/16 07:33:22;;;;;;;;;0.00;0.00;;;;;23.74;48.88;97634.22;5044329;27;45443;-74
2023/01/16 07:35:47;;;;;;;;;0.00;0.00;;;;;23.83;49.05;97626.53;5037775;28;45503;-74
2023/01/16 07:38:12;;;;;;;;;1.33;1.33;;;;;23.90;48.78;97619.03;5042522;28;45554;-73
2023/01/16 07:40:38;;;;;;;;;3.33;1.67;;;;;23.99;48.56;97583.41;5036078;28;54748;-73
2023/01/16 07:43:03;;;;;;;;;0.00;0.00;;;;;24.06;48.40;97584.06;5033655;28;45507;-75
2023/01/16 07:45:28;;;;;;;;;3.33;2.00;;;;;24.08;48.14;97592.78;5088371;27;45668;-76
2023/01/16 07:47:54;;;;;;;;;1.00;1.00;;;;;24.11;48.26;97584.16;5026262;28;45536;-82
2023/01/16 07:50:19;;;;;;;;;1.33;0.67;;;;;24.13;47.81;97583.91;5022583;28;50511;-78
2023/01/16 07:52:45;;;;;;;;;1.00;1.00;;;;;24.15;47.64;97573.66;5001257;28;45737;-79
2023/01/16 07:55:12;;;;;;;;;1.33;1.00;;;;;24.15;47.15;97568.25;5010488;28;46922;-76
2023/01/16 07:57:38;;;;;;;;;3.00;1.33;;;;;24.15;47.21;97550.06;5010474;28;45674;-79
2023/01/16 08:00:10;;;;;;;;;2.33;1.67;;;;;24.16;47.55;97546.28;5016721;28;46480;-78
2023/01/16 08:02:35;;;;;;;;;6.00;1.00;;;;;24.21;47.12;97540.94;5018050;28;47135;-80
2023/01/16 08:05:01;;;;;;;;;2.00;2.00;;;;;24.24;46.98;97536.94;5021487;27;46966;-79
2023/01/16 08:07:26;;;;;;;;;4.00;2.00;;;;;24.28;46.91;97529.91;5016515;28;47217;-79
2023/01/16 08:09:51;;;;;;;;;2.67;2.00;;;;;24.29;46.81;97525.34;5013522;27;45725;-77
2023/01/16 08:12:16;;;;;;;;;1.00;1.00;;;;;24.32;46.74;97522.13;5064409;27;54906;-77
2023/01/16 08:14:42;;;;;;;;;3.33;1.67;;;;;24.33;46.64;97523.75;5034164;28;47620;-77
2023/01/16 08:17:08;;;;;;;;;2.00;1.33;;;;;24.39;46.43;97509.19;5023445;27;45627;-76
2023/01/16 08:19:33;;;;;;;;;2.00;0.00;;;;;24.43;46.38;97494.06;5008650;28;46169;-83
2023/01/16 08:21:59;;;;;;;;;2.67;2.00;;;;;24.51;46.06;97490.09;5038193;28;45580;-78
2023/01/16 08:24:25;;;;;;;;;6.00;3.67;;;;;24.54;45.93;97486.88;5030101;28;45720;-76
2023/01/16 08:26:51;;;;;;;;;4.33;2.33;;;;;24.56;45.98;97451.38;5027693;27;45623;-76
2023/01/16 08:29:17;;;;;;;;;5.33;3.00;;;;;24.58;45.68;97495.31;5025237;28;47303;-76
2023/01/16 08:31:42;;;;;;;;;3.67;2.00;;;;;24.60;45.87;97491.28;5029881;27;45492;-76
2023/01/16 08:34:07;;;;;;;;;8.33;2.67;;;;;24.62;45.73;97491.03;5015077;27;48262;-76
2023/01/16 08:36:33;;;;;;;;;3.33;1.67;;;;;24.66;45.69;97488.63;5024665;28;45842;-76
2023/01/16 08:38:58;;;;;;;;;5.00;4.00;;;;;24.70;45.65;97500.59;5024074;27;46147;-76
2023/01/16 08:52:34;;;;;;;;;3.00;1.33;;;;;24.68;45.08;97492.72;5025323;28;45452;-76
2023/01/16 08:55:00;;;;;;;;;5.00;2.33;;;;;24.70;44.76;97496.00;5028384;28;45523;-76
2023/01/16 08:57:27;;;;;;;;;2.00;2.00;;;;;24.71;45.01;97481.38;5025471;28;45736;-76
2023/01/16 08:59:53;;;;;;;;;4.33;3.00;;;;;24.74;44.54;97486.25;5024955;28;46299;-76
2023/01/16 09:02:19;;;;;;;;;3.00;2.00;;;;;24.77;44.71;97479.50;5026036;28;46329;-76
2023/01/16 09:04:45;;;;;;;;;1.67;1.67;;;;;24.79;44.73;97474.66;5026373;27;45379;-76
2023/01/16 09:07:10;;;;;;;;;4.00;1.00;;;;;24.80;44.58;97473.56;5024517;28;45453;-77
2023/01/16 09:09:35;;;;;;;;;3.00;3.00;;;;;24.80;44.76;97464.63;5027284;28;45931;-76
2023/01/16 09:14:45;;;;;;;;;5.00;1.00;;;;;24.74;43.92;97467.28;5032149;27;45466;-76
2023/01/16 09:17:10;;;;;;;;;2.33;2.00;;;;;24.73;44.06;97470.25;5011947;28;45544;-77
2023/01/16 09:19:36;;;;;;;;;2.00;1.00;;;;;24.73;44.23;97475.69;5027363;27;45432;-76
2023/01/16 09:22:07;;;;;;;;;0.67;0.67;;;;;24.74;44.23;97472.69;5023900;28;45554;-76
2023/01/16 09:24:34;;;;;;;;;4.00;1.00;;;;;24.73;43.90;97489.25;5041771;28;45471;-76
2023/01/16 09:27:00;;;;;;;;;4.00;1.67;;;;;24.69;44.17;97493.53;5025251;28;46719;-76
2023/01/16 09:29:26;;;;;;;;;0.67;0.67;;;;;24.67;43.91;97512.78;5025584;27;45558;-76
2023/01/16 09:31:52;;;;;;;;;1.00;0.67;;;;;24.66;43.83;97516.56;5025641;27;45796;-76
2023/01/16 09:34:17;;;;;;;;;3.00;1.67;;;;;24.66;43.64;97542.84;5025658;27;45538;-76
2023/01/16 09:36:42;;;;;;;;;1.67;1.00;;;;;24.68;43.48;97557.78;5026715;28;45607;-79
2023/01/16 09:39:08;;;;;;;;;23.67;20.00;;;;;24.67;43.44;97568.88;5026433;27;46035;-78
2023/01/16 09:44:31;;;;;;;;;39.50;31.00;;;;;24.61;43.39;97601.34;5021072;28;45443;-78
2023/01/16 09:46:59;;;;;;;;;49.00;38.50;;;;;24.59;43.48;97599.97;5007667;28;45492;-79
2023/01/16 09:49:31;;;;;;;;;36.50;31.25;;;;;24.51;43.35;97620.22;5029194;28;45425;-77
2023/01/16 10:00:31;;;;;;;;;41.50;34.50;;;;;24.53;42.90;97664.19;5024584;27;45712;-77
2023/01/16 10:02:56;;;;;;;;;40.75;34.25;;;;;24.53;43.26;97672.31;5028041;28;45505;-77
2023/01/16 10:05:28;;;;;;;;;44.75;35.00;;;;;24.53;42.82;97699.41;5026805;28;45477;-77
2023/01/16 10:08:05;;;;;;;;;41.25;34.75;;;;;24.53;42.95;97695.88;5023737;27;45488;-78
2023/01/16 10:10:46;;;;;;;;;41.75;35.75;;;;;24.54;42.79;97711.91;5029827;27;46402;-78
2023/01/16 10:13:23;;;;;;;;;39.25;32.00;;;;;24.59;43.04;97728.25;5024990;27;45652;-80
2023/01/16 10:16:04;;;;;;;;;38.00;31.50;;;;;24.63;42.91;97755.66;5038625;27;45423;-78
2023/01/16 10:18:56;;;;;;;;;39.50;32.25;;;;;24.68;42.87;97752.22;5030704;28;45274;-77
2023/01/16 10:21:41;;;;;;;;;39.25;35.00;;;;;24.68;42.61;97763.09;5025017;28;47240;-79
2023/01/16 10:24:31;;;;;;;;;33.50;30.75;;;;;24.70;42.65;97775.31;5018993;28;45706;-79
2023/01/16 10:26:59;;;;;;;;;37.25;31.25;;;;;24.76;42.74;97784.34;5026768;28;45528;-77
2023/01/16 10:29:39;;;;;;;;;29.25;27.75;;;;;24.78;42.46;97792.22;5025398;27;45469;-76
2023/01/16 10:32:14;;;;;;;;;25.75;25.75;;;;;24.82;42.58;97801.50;5028939;28;45718;-76
2023/01/16 10:35:03;;;;;;;;;34.50;27.25;;;;;24.85;42.42;97826.28;5011597;28;46002;-80
2023/01/16 10:37:29;;;;;;;;;28.75;26.50;;;;;24.86;42.58;97838.75;5029858;27;45443;-78
2023/01/16 10:39:55;;;;;;;;;38.75;30.75;;;;;24.88;42.61;97822.25;5027553;28;45519;-79
2023/01/16 10:51:07;;;;;;;;;29.67;28.00;;;;;24.94;42.59;97889.09;5027361;28;45854;-77
2023/01/16 10:53:34;;;;;;;;;33.25;27.50;;;;;24.95;42.43;97892.63;5007477;27;47207;-76
2023/01/16 10:56:00;;;;;;;;;32.00;29.25;;;;;24.93;42.30;97903.69;5027491;28;45492;-76
2023/01/16 10:58:35;;;;;;;;;34.75;32.00;;;;;24.93;42.53;97919.19;5027274;28;45588;-76
2023/01/16 11:01:11;;;;;;;;;36.25;30.00;;;;;24.89;42.23;97924.25;5034414;27;46935;-76
2023/01/16 11:03:37;;;;;;;;;39.00;30.50;;;;;24.85;42.46;97933.97;5027046;27;46182;-77
2023/01/16 11:06:15;;;;;;;;;50.50;37.75;;;;;24.80;41.99;97942.00;5025796;27;45704;-77
2023/01/16 11:08:42;;;;;;;;;46.00;35.50;;;;;24.76;42.28;97957.91;5028953;28;45508;-78
2023/01/16 11:20:34;;;;;;;;;46.25;35.75;;;;;24.58;41.94;97986.91;4949166;28;45917;-78
2023/01/16 11:23:26;;;;;;;;;45.00;37.00;;;;;24.55;41.94;98006.34;4972580;28;45596;-78
2023/01/16 11:25:58;;;;;;;;;37.25;31.75;;;;;24.52;41.81;98012.25;5003093;28;45391;-79
2023/01/16 11:28:27;;;;;;;;;41.00;33.75;;;;;24.51;41.97;98024.16;5038905;28;45481;-79
2023/01/16 11:31:00;;;;;;;;;38.00;30.25;;;;;24.50;42.07;98032.53;4974453;28;45547;-79
2023/01/16 11:33:32;;;;;;;;;31.25;27.75;;;;;24.50;41.92;98025.25;4977657;28;45459;-78
2023/01/16 11:36:01;;;;;;;;;31.75;26.75;;;;;24.51;41.73;98045.03;4971604;28;46036;-78
2023/01/16 11:38:29;;;;;;;;;35.75;31.75;;;;;24.54;41.83;98063.53;4971300;28;45457;-80
2023/01/16 11:40:58;;;;;;;;;29.75;25.50;;;;;24.53;41.48;98064.59;5044541;28;45460;-80
2023/01/16 11:46:33;;;;;;;;;24.00;21.75;;;;;24.43;41.45;98076.88;5095428;27;45585;-78
2023/01/16 11:49:02;;;;;;;;;30.00;23.67;;;;;24.39;41.75;98081.13;5089829;27;46029;-77
2023/01/16 11:51:36;;;;;;;;;34.00;28.25;;;;;24.35;41.46;98104.34;5086449;27;46205;-77
2023/01/16 11:54:05;;;;;;;;;37.00;28.00;;;;;24.31;41.57;98106.72;5095040;27;45721;-77
2023/01/16 11:56:33;;;;;;;;;27.25;25.50;;;;;24.31;41.78;98109.44;5094282;27;45414;-77
2023/01/16 11:59:16;;;;;;;;;28.33;25.00;;;;;24.32;41.94;98115.69;5088348;27;45334;-78
2023/01/16 12:02:16;;;;;;;;;29.00;25.00;;;;;24.34;41.51;98127.94;5089139;27;45453;-77
2023/01/16 12:08:09;;;;;;;;;26.00;24.00;;;;;24.28;41.55;98145.13;5095845;27;45726;-77
2023/01/16 12:10:53;;;;;;;;;26.67;24.67;;;;;24.26;41.58;98147.25;5095895;27;45402;-77
2023/01/16 12:16:40;;;;;;;;;23.67;22.00;;;;;24.22;41.44;98170.47;5095268;27;46075;-78
2023/01/16 12:19:37;;;;;;;;;17.33;14.67;;;;;24.20;41.71;98173.41;5093473;27;45468;-76
2023/01/16 12:22:44;;;;;;;;;17.33;17.00;;;;;24.21;41.50;98190.50;5094058;27;45531;-77
2023/01/16 12:25:43;;;;;;;;;23.00;16.67;;;;;24.22;41.54;98194.88;5089983;27;47159;-76
2023/01/16 12:28:25;;;;;;;;;17.67;16.33;;;;;24.26;41.66;98203.34;5089778;27;45485;-76
2023/01/16 12:31:34;;;;;;;;;20.67;16.00;;;;;24.32;41.72;98211.38;5085655;27;45435;-76
2023/01/16 12:34:25;;;;;;;;;22.33;17.67;;;;;24.41;41.21;98219.16;5089471;27;45724;-76
2023/01/16 12:36:55;;;;;;;;;20.00;16.67;;;;;24.47;41.46;98216.31;5085444;27;45491;-75
2023/01/16 12:39:35;;;;;;;;;15.67;13.67;;;;;24.56;41.39;98221.41;5081058;27;45412;-75
2023/01/16 12:45:15;;;;;;;;;12.33;11.67;;;;;24.65;40.82;98248.97;5030810;28;45423;-78
2023/01/16 12:48:07;;;;;;;;;15.00;12.00;;;;;24.60;40.90;98255.09;5032634;27;45540;-79
2023/01/16 12:50:58;;;;;;;;;13.33;12.00;;;;;24.53;40.90;98257.94;5023620;28;45531;-79
2023/01/16 12:53:42;;;;;;;;;9.00;8.67;;;;;24.50;41.11;98266.53;5032012;27;45563;-79
2023/01/16 12:56:16;;;;;;;;;20.33;12.00;;;;;24.47;41.07;98265.13;5030999;28;45529;-78
2023/01/16 12:58:49;;;;;;;;;16.00;13.00;;;;;24.48;40.75;98284.91;5028343;28;45432;-78
2023/01/16 13:01:36;;;;;;;;;18.33;13.00;;;;;24.50;40.68;98296.38;5028756;28;45461;-78
2023/01/16 13:04:26;;;;;;;;;18.00;14.33;;;;;24.51;40.81;98310.72;5024755;27;46285;-76
2023/01/16 13:06:58;;;;;;;;;22.33;16.33;;;;;24.50;40.46;98312.63;5022486;28;45426;-76
2023/01/16 13:13:20;;;;;;;;;18.33;14.33;;;;;24.47;40.71;98318.53;5027060;27;45523;-76
2023/01/16 13:15:33;;;;;;;;;14.00;12.00;;;;;24.52;40.71;98318.63;5031264;27;45914;-77
2023/01/16 13:18:15;;;;;;;;;14.33;12.33;;;;;24.58;40.64;98320.44;5003064;28;45410;-78
2023/01/16 13:20:43;;;;;;;;;14.67;11.00;;;;;24.69;40.70;98328.81;5033276;27;45465;-77
2023/01/16 13:23:19;;;;;;;;;14.33;10.33;;;;;24.79;40.80;98331.75;5032756;28;45387;-78
2023/01/16 13:25:48;;;;;;;;;11.33;11.00;;;;;24.89;40.88;98341.22;5031494;27;46810;-77
2023/01/16 13:28:36;;;;;;;;;11.67;9.67;;;;;24.99;40.60;98338.75;5032040;28;45395;-76
2023/01/16 13:31:08;;;;;;;;;11.00;10.33;;;;;25.10;40.64;98346.06;5021359;28;45366;-75
2023/01/16 13:33:39;;;;;;;;;14.67;11.67;;;;;25.20;40.44;98358.19;5031825;28;45881;-76
2023/01/16 13:36:23;;;;;;;;;13.67;11.67;;;;;25.26;40.61;98358.06;5030466;28;47316;-77
2023/01/16 13:39:00;;;;;;;;;9.00;8.67;;;;;25.32;40.37;98358.19;5033052;28;45434;-76
2023/01/16 13:41:33;;;;;;;;;12.67;8.67;;;;;25.36;40.75;98364.78;5030691;28;45551;-76
2023/01/16 13:47:06;;;;;;;;;14.67;13.33;;;;;25.41;40.81;98393.97;5031778;28;45662;-75
2023/01/16 13:49:32;;;;;;;;;21.33;13.33;;;;;25.43;40.40;98395.38;5042120;28;45451;-77
2023/01/16 13:52:01;;;;;;;;;15.00;10.67;;;;;25.46;40.21;98411.19;5032238;27;45413;-77
2023/01/16 13:54:48;;;;;;;;;14.00;9.00;;;;;25.47;40.76;98406.59;5030855;27;45509;-76
2023/01/16 13:57:20;;;;;;;;;13.67;11.67;;;;;25.48;40.47;98416.38;5034435;28;46407;-75
2023/01/16 13:59:56;;;;;;;;;18.00;14.00;;;;;25.47;40.85;98415.53;5036518;28;45527;-74
2023/01/16 14:02:36;;;;;;;;;18.00;14.33;;;;;25.52;40.77;98418.38;5023632;27;45372;-75
2023/01/16 14:05:20;;;;;;;;;19.33;11.33;;;;;25.58;40.37;98430.19;5030989;28;45348;-75
2023/01/16 14:10:41;;;;;;;;;31.67;25.67;;;;;25.61;40.16;98432.44;5035500;28;45370;-77
2023/01/16 14:13:37;;;;;;;;;29.33;20.33;;;;;25.65;40.49;98440.94;5031396;28;45468;-77
2023/01/16 14:16:30;;;;;;;;;52.00;36.50;;;;;25.69;40.21;98452.16;5038889;27;45779;-76
2023/01/16 14:18:55;;;;;;;;;49.00;35.50;;;;;25.70;40.39;98453.81;5030659;27;45365;-77
2023/01/16 14:21:23;;;;;;;;;49.75;37.00;;;;;25.69;40.02;98453.00;5029875;28;45612;-75
2023/01/16 14:24:00;;;;;;;;;58.00;45.00;;;;;25.69;39.93;98460.31;5035515;28;45497;-75
2023/01/16 14:26:43;;;;;;;;;57.75;42.50;;;;;25.68;39.98;98470.34;5031461;28;45774;-75
2023/01/16 14:29:17;;;;;;;;;54.25;41.50;;;;;25.68;40.47;98474.94;5013550;28;45989;-76
2023/01/16 14:31:53;;;;;;;;;55.75;42.75;;;;;25.67;40.42;98473.31;5030893;27;45872;-76
2023/01/16 14:34:27;;;;;;;;;56.75;41.00;;;;;25.67;40.14;98476.03;5031762;28;45453;-77
2023/01/16 14:36:54;;;;;;;;;54.25;40.00;;;;;25.65;40.33;98477.09;5021300;28;45403;-78
2023/01/16 14:39:31;;;;;;;;;58.25;37.00;;;;;25.69;40.47;98482.03;5030776;27;46262;-76
2023/01/16 14:56:59;;;;;;;;;53.25;41.50;;;;;25.95;40.42;98510.59;5034500;27;45498;-76
2023/01/16 14:59:33;;;;;;;;;52.75;39.75;;;;;25.99;39.95;98511.75;5047867;27;45778;-75
2023/01/16 15:02:20;;;;;;;;;53.75;41.00;;;;;26.03;40.07;98521.09;5032337;28;45445;-74
2023/01/16 15:04:57;;;;;;;;;46.00;35.75;;;;;26.07;40.22;98529.59;5033173;28;45359;-75
2023/01/16 15:07:32;;;;;;;;;50.50;40.00;;;;;26.09;39.69;98532.06;5038920;27;45495;-75
2023/01/16 15:10:09;;;;;;;;;52.25;38.75;;;;;26.08;40.02;98533.16;5032747;28;45523;-77
2023/01/16 15:12:38;;;;;;;;;56.75;39.75;;;;;26.08;40.19;98531.28;5033964;28;46187;-76
2023/01/16 15:15:04;;;;;;;;;51.25;39.50;;;;;26.11;39.65;98540.84;5035274;27;45477;-74
2023/01/16 15:23:27;;;;;;;;;52.00;37.75;;;;;26.13;39.79;98560.44;5035151;28;45342;-76
2023/01/16 15:26:06;;;;;;;;;53.00;39.00;;;;;26.13;39.74;98553.13;5033009;28;45397;-75
2023/01/16 15:28:48;;;;;;;;;50.50;35.75;;;;;26.14;40.23;98551.22;5031891;28;45444;-77
2023/01/16 15:31:18;;;;;;;;;45.50;35.25;;;;;26.16;40.47;98558.06;5033548;28;45477;-77
2023/01/16 15:33:47;;;;;;;;;45.75;35.50;;;;;26.20;39.83;98571.19;5033574;28;46358;-78
2023/01/16 15:36:22;;;;;;;;;46.50;35.25;;;;;26.24;39.87;98565.03;5032282;28;45396;-78
2023/01/16 15:38:54;;;;;;;;;35.50;23.25;;;;;26.27;40.06;98572.75;5043209;28;45959;-77
2023/01/16 15:46:32;;;;;;;;;49.25;33.75;;;;;26.31;40.06;98578.53;5032795;27;45432;-77
2023/01/16 15:47:15;;;;;;;;;45.75;34.25;;;;;26.41;39.56;98592.31;5035646;28;45537;-76
2023/01/16 15:50:01;;;;;;;;;45.50;35.25;;;;;26.44;39.50;98588.28;5031849;27;45405;-73
2023/01/16 15:52:29;;;;;;;;;68.75;53.00;;;;;26.47;40.04;98595.16;5034335;27;45438;-79
2023/01/16 15:54:55;;;;;;;;;69.25;54.75;;;;;26.40;39.71;98587.97;5033563;27;45404;-79
2023/01/16 15:57:20;;;;;;;;;72.75;52.75;;;;;26.32;39.63;98599.19;5027301;28;45550;-80
2023/01/16 15:59:54;;;;;;;;;56.25;45.50;;;;;26.18;39.62;98596.72;5027325;28;45375;-78
2023/01/16 16:02:27;;;;;;;;;63.25;46.75;;;;;26.04;39.07;98598.03;5028506;28;45407;-80
2023/01/16 16:04:59;;;;;;;;;61.25;46.75;;;;;25.91;38.65;98597.22;5032144;28;47090;-76
2023/01/16 16:07:26;;;;;;;;;57.25;42.75;;;;;25.86;38.82;98602.53;5033659;28;45496;-79
2023/01/16 16:09:56;;;;;;;;;54.00;43.25;;;;;25.86;38.63;98607.97;5037517;28;45437;-78
2023/01/16 16:12:22;;;;;;;;;51.75;43.00;;;;;25.90;38.81;98605.59;5040478;27;45333;-77
2023/01/16 16:20:40;;;;;;;;;45.50;33.50;;;;;26.21;38.52;98616.34;5031409;28;45551;-76
2023/01/16 16:23:11;;;;;;;;;38.75;34.00;;;;;26.26;38.99;98620.03;5033489;28;45479;-79
2023/01/16 16:25:58;;;;;;;;;41.00;33.25;;;;;26.28;38.20;98614.38;5033760;28;45418;-77
2023/01/16 16:28:33;;;;;;;;;33.00;28.67;;;;;26.27;38.42;98627.13;5026906;28;45474;-79
2023/01/16 16:31:20;;;;;;;;;40.00;30.25;;;;;26.25;38.61;98618.38;5033531;28;45517;-81
2023/01/16 16:34:15;;;;;;;;;36.33;30.33;;;;;26.30;39.00;98626.66;5045762;27;45485;-85
2023/01/16 16:36:44;;;;;;;;;28.00;26.67;;;;;26.32;38.39;98618.22;5033232;27;46122;-81
2023/01/16 16:39:24;;;;;;;;;37.67;29.00;;;;;26.36;38.45;98624.84;5033170;28;45394;-79
2023/01/16 16:44:44;;;;;;;;;16.33;13.67;;;;;26.38;38.33;98633.63;5040259;28;45610;-77
2023/01/16 16:47:27;;;;;;;;;32.33;22.33;;;;;26.26;38.07;98635.50;5030064;28;46293;-78
2023/01/16 16:49:53;;;;;;;;;25.33;22.33;;;;;26.13;37.78;98636.56;5036885;27;46782;-81
2023/01/16 16:52:31;;;;;;;;;25.67;21.67;;;;;26.02;37.92;98646.34;5059555;27;45814;-82
2023/01/16 16:54:58;;;;;;;;;30.00;19.00;;;;;25.90;37.68;98649.06;5038265;27;47232;-82
2023/01/16 16:57:26;;;;;;;;;21.33;18.33;;;;;25.80;38.11;98660.53;5038789;27;46719;-82
2023/01/16 16:59:54;;;;;;;;;27.67;22.67;;;;;25.73;38.16;98662.53;5036648;27;45502;-82
2023/01/16 17:02:21;;;;;;;;;25.33;18.00;;;;;25.64;37.99;98665.59;5055456;27;45470;-81
2023/01/16 17:04:46;;;;;;;;;17.67;16.33;;;;;25.59;37.99;98670.06;5044504;28;45841;-82
2023/01/16 17:07:12;;;;;;;;;18.33;17.33;;;;;25.52;38.06;98676.41;5039263;28;46113;-83
2023/01/16 17:09:37;;;;;;;;;13.00;12.00;;;;;25.46;37.83;98680.03;5036664;28;45512;-83
2023/01/16 17:12:29;;;;;;;;;23.67;17.67;;;;;25.37;37.88;98684.97;5039564;28;45457;-81
2023/01/16 17:14:54;;;;;;;;;17.67;17.33;;;;;25.30;37.60;98684.22;5028793;27;45547;-82
2023/01/16 17:17:20;;;;;;;;;20.00;15.67;;;;;25.25;38.27;98686.78;5032201;28;53868;-84
2023/01/16 17:19:46;;;;;;;;;16.00;15.00;;;;;25.21;38.02;98685.59;5013642;27;45574;-81
2023/01/16 17:22:11;;;;;;;;;17.67;12.67;;;;;25.19;38.02;98685.84;5029027;28;45482;-83
2023/01/16 17:24:38;;;;;;;;;12.67;9.33;;;;;25.18;37.88;98683.34;5017091;27;45599;-81
2023/01/16 17:27:09;;;;;;;;;6.67;6.00;;;;;25.16;38.16;98688.16;5030106;28;46398;-81
2023/01/16 17:29:34;;;;;;;;;11.33;7.33;;;;;25.14;38.01;98688.41;5042213;27;45571;-85
2023/01/16 17:32:04;;;;;;;;;15.33;12.00;;;;;25.12;37.92;98685.94;5030748;28;45466;-84
2023/01/16 17:34:30;;;;;;;;;11.33;10.33;;;;;25.08;37.58;98679.28;5023812;27;45675;-87
2023/01/16 17:36:55;;;;;;;;;14.67;11.00;;;;;25.10;37.63;98689.94;5086170;27;46394;-84
2023/01/16 17:39:20;;;;;;;;;14.67;11.67;;;;;25.11;38.38;98686.16;5043712;27;45405;-84
2023/01/16 17:47:08;;;;;;;;;14.33;12.00;;;;;25.15;37.97;98694.66;5035959;28;45513;-84
2023/01/16 17:50:20;;;;;;;;;15.00;12.00;;;;;25.16;38.25;98697.16;5031450;28;45390;-86
2023/01/16 17:52:22;;;;;;;;;14.00;10.67;;;;;25.16;38.03;98705.28;5031759;27;45385;-90
2023/01/16 17:57:32;;;;;;;;;10.00;10.00;;;;;25.21;38.11;98710.03;5030472;28;45805;-88
2023/01/16 17:59:58;;;;;;;;;10.67;9.33;;;;;25.21;38.33;98710.03;5031963;27;45459;-87
2023/01/16 18:02:23;;;;;;;;;16.00;13.67;;;;;25.23;38.12;98702.50;5045128;27;45443;-80
2023/01/16 18:04:50;;;;;;;;;11.00;11.00;;;;;25.24;37.69;98710.41;5045022;28;48078;-80
2023/01/16 18:07:15;;;;;;;;;11.67;11.00;;;;;25.27;38.15;98709.94;5031177;27;46182;-81
2023/01/16 18:09:40;;;;;;;;;12.00;8.67;;;;;25.32;37.90;98713.84;5031394;28;45484;-79
2023/01/16 18:17:33;;;;;;;;;10.67;9.00;;;;;25.42;38.40;98721.47;5045960;27;45312;-80
2023/01/16 18:19:59;;;;;;;;;11.00;9.00;;;;;25.45;37.84;98701.97;5071579;27;45345;-82
2023/01/16 18:22:26;;;;;;;;;9.00;8.33;;;;;25.49;38.24;98709.44;5029813;28;45819;-81
2023/01/16 18:24:52;;;;;;;;;10.67;10.00;;;;;25.52;37.72;98705.44;5027563;28;45365;-80
2023/01/16 18:27:18;;;;;;;;;11.00;10.00;;;;;25.53;38.13;98709.81;5031361;27;46121;-81
2023/01/16 18:29:44;;;;;;;;;5.33;4.67;;;;;25.56;38.45;98713.97;5027148;28;45583;-82
2023/01/16 18:32:22;;;;;;;;;8.33;7.33;;;;;25.56;38.13;98709.38;5031336;27;45427;-82
2023/01/16 18:34:53;;;;;;;;;6.33;6.00;;;;;25.55;38.01;98710.44;5063666;27;45575;-90
2023/01/16 18:37:21;;;;;;;;;9.67;6.00;;;;;25.53;37.77;98718.78;5013370;27;46330;-90
2023/01/16 19:01:55;;;;;;;;;7.00;7.00;;;;;25.74;38.15;98727.50;5021528;27;45840;-82
2023/01/16 19:04:21;;;;;;;;;5.00;5.00;;;;;25.74;38.21;98722.06;5032561;28;45918;-88
2023/01/16 19:06:47;;;;;;;;;8.33;5.67;;;;;25.78;38.07;98723.25;5033422;28;45323;-95
2023/01/16 19:09:14;;;;;;;;;5.00;5.00;;;;;25.82;38.34;98722.81;5034963;28;45383;-91
2023/01/16 19:11:41;;;;;;;;;7.00;6.00;;;;;25.86;37.91;98724.81;5027820;27;45359;-90
2023/01/16 19:14:06;;;;;;;;;5.67;4.00;;;;;25.88;37.77;98714.53;5030476;28;45388;-90
2023/01/16 19:16:43;;;;;;;;;2.67;2.67;;;;;25.89;38.21;98718.91;5031562;28;45383;-89
2023/01/16 19:19:09;;;;;;;;;8.00;5.00;;;;;25.90;37.81;98717.84;5030439;27;46296;-85
2023/01/16 19:21:35;;;;;;;;;8.67;5.67;;;;;25.91;38.20;98722.22;5010868;27;45745;-88
2023/01/16 19:24:00;;;;;;;;;5.00;5.00;;;;;25.91;37.93;98719.50;5033433;28;45813;-87
